Current | Forecast
Updated: 10:00 AM JST on December 11, 2017
Observed at Tajima, Japan
Temperature 45°F
Windchill 40°F
Humidity 57%
Dew Point 30°F
Wind Variable at 8 mph
Pressure 29.89 in (Rising)
Conditions Mostly Cloudy
Visibility 6.2 miles
UV 1 out of 16
Clouds (FEW) : 1000 ft
Scattered Clouds (SCT) : 2500 ft
Mostly Cloudy (BKN) : 3500 ft
Yesterday's Maximum 48°F
Yesterday's Minimum 41°F approx.
Yesterday's Heating Degree Days 20 approx.
Sunrise6:57 AM JST
Sunset4:46 PM JST
Moon Rise12:00 AM JST
Moon Set12:50 PM JST
Moon PhaseMoon Phase
Last Quarter
Raw METARMETAR RJBT 110100Z VRB07KT 9999 VCSH FEW010 SCT025 BKN035 07/M01 Q1012


Monday
. High: 80° F.
Tuesday
. High: 75° F.
Wednesday
. High: 71° F.
Thursday
. High: 78° F.
Friday
. High: 80° F.
Saturday
. High: 73° F.
Sunday
. High: 77° F.
Monday
. High: 78° F.

Units: English | Metric

Find the Weather for any City, State or Zipcode, or Country:

U.S. State List | Severe Weather | Tropical Storms | Ski Conditions
United States | Canada | Central America | South America | Asia | Europe | Australia | Africa | Islands

Weather Underground

© Copyright 2017
The Weather Company, LLC